Time;durP1;ratioP1;P1;durP2;ratioP2;P2;SDS_P1;SDS_P2;PMS_P1;PMS_P2;Temp;Humidity;BMP_temperature;BMP_pressure;BME280_temperature;BME280_humidity;BME280_pressure;Samples;Min_cycle;Max_cycle;Signal;HPM_P1;HPM_P2
2023/01/16 00:00:20;;;;;;;7.00;1.60;;;;;3.10;95233.00;;;;8316673;28;20205;-66
2023/01/16 00:04:26;;;;;;;2.93;1.50;;;;;3.10;95214.00;;;;8332822;28;20244;-66
2023/01/16 00:08:30;;;;;;;1.30;1.23;;;;;3.10;95205.00;;;;8333278;28;20266;-66
2023/01/16 00:12:37;;;;;;;1.70;1.47;;;;;3.10;95202.00;;;;8333613;28;20595;-66
2023/01/16 00:16:41;;;;;;;4.60;1.63;;;;;3.10;95198.00;;;;8332339;28;20294;-66
2023/01/16 00:20:48;;;;;;;3.30;1.40;;;;;3.10;95192.00;;;;8332212;28;20196;-66
2023/01/16 00:24:56;;;;;;;2.60;1.00;;;;;3.20;95187.00;;;;8333040;28;20265;-66
2023/01/16 00:29:01;;;;;;;1.17;1.10;;;;;3.20;95181.00;;;;8332471;28;20655;-66
2023/01/16 00:33:05;;;;;;;2.97;1.60;;;;;3.20;95184.00;;;;8332819;28;20551;-65
2023/01/16 00:37:08;;;;;;;2.47;1.10;;;;;3.20;95181.00;;;;8332972;28;20219;-66
2023/01/16 00:41:13;;;;;;;5.17;1.33;;;;;3.20;95182.00;;;;8333102;28;20196;-66
2023/01/16 00:45:16;;;;;;;2.37;1.20;;;;;3.10;95178.00;;;;8332068;28;20562;-66
2023/01/16 00:49:22;;;;;;;2.37;1.23;;;;;3.10;95182.00;;;;8332954;28;20649;-65
2023/01/16 00:53:26;;;;;;;2.43;1.30;;;;;3.10;95188.00;;;;8332164;28;20258;-66
2023/01/16 00:57:31;;;;;;;1.67;1.30;;;;;3.10;95186.00;;;;8331684;28;20226;-66
2023/01/16 01:01:37;;;;;;;4.27;1.50;;;;;3.20;95182.00;;;;8330800;28;20197;-66
2023/01/16 01:05:46;;;;;;;8.70;1.40;;;;;3.10;95176.00;;;;8331049;28;20231;-65
2023/01/16 01:09:54;;;;;;;1.30;1.20;;;;;3.10;95162.00;;;;8332147;28;20231;-65
2023/01/16 01:13:58;;;;;;;1.20;1.20;;;;;3.00;95159.00;;;;8332351;28;20196;-65
2023/01/16 01:18:05;;;;;;;1.67;1.00;;;;;2.80;95159.00;;;;8330952;28;20212;-65
2023/01/16 01:22:08;;;;;;;2.73;1.40;;;;;2.70;95153.00;;;;8330750;28;20200;-65
2023/01/16 01:26:16;;;;;;;2.33;1.20;;;;;2.60;95148.00;;;;8331794;28;20224;-65
2023/01/16 01:30:21;;;;;;;4.27;1.50;;;;;2.50;95143.00;;;;8331278;28;20200;-65
2023/01/16 01:34:26;;;;;;;5.57;1.50;;;;;2.50;95135.00;;;;8329874;28;20204;-65
2023/01/16 01:38:32;;;;;;;4.77;1.20;;;;;2.50;95129.00;;;;8330397;28;20200;-65
2023/01/16 01:42:47;;;;;;;3.23;1.33;;;;;2.60;95116.00;;;;8330836;28;20221;-65
2023/01/16 01:46:55;;;;;;;2.03;1.40;;;;;2.60;95114.00;;;;8328412;28;20701;-65
2023/01/16 01:51:02;;;;;;;2.47;1.23;;;;;2.60;95103.00;;;;8331020;28;20221;-65
2023/01/16 01:55:10;;;;;;;4.77;1.50;;;;;2.60;95099.00;;;;8313804;28;20194;-65
2023/01/16 01:59:20;;;;;;;3.53;1.30;;;;;2.70;95093.00;;;;8330349;28;20191;-65
2023/01/16 02:03:28;;;;;;;2.80;1.40;;;;;2.80;95087.00;;;;8329703;28;20223;-65
2023/01/16 02:07:32;;;;;;;4.40;1.40;;;;;2.90;95082.00;;;;8312151;28;20278;-65
2023/01/16 02:11:40;;;;;;;3.07;1.10;;;;;3.00;95072.00;;;;8328839;28;20203;-65
2023/01/16 02:20:22;;;;;;;1.10;1.10;;;;;3.10;95052.00;;;;8329210;28;20551;-65
2023/01/16 02:24:55;;;;;;;2.20;1.43;;;;;3.10;95045.00;;;;8329260;28;20232;-65
2023/01/16 02:29:19;;;;;;;1.93;1.23;;;;;3.10;95040.00;;;;8291553;28;20206;-65
2023/01/16 02:33:33;;;;;;;2.40;1.30;;;;;3.20;95023.00;;;;8330179;28;20195;-65
2023/01/16 02:37:50;;;;;;;1.40;1.10;;;;;3.20;95019.00;;;;8330603;28;20591;-65
2023/01/16 02:42:05;;;;;;;2.60;1.30;;;;;3.30;95008.00;;;;8331017;28;20196;-65
2023/01/16 02:46:19;;;;;;;1.40;1.30;;;;;3.30;95002.00;;;;8336182;28;20221;-65
2023/01/16 02:50:29;;;;;;;2.80;1.17;;;;;3.30;94992.00;;;;8334947;28;20199;-65
2023/01/16 02:54:38;;;;;;;2.80;1.20;;;;;3.30;94991.00;;;;8336553;28;20212;-65
2023/01/16 02:58:48;;;;;;;2.30;1.30;;;;;3.40;94977.00;;;;8336981;28;20211;-65
2023/01/16 03:02:54;;;;;;;2.53;1.20;;;;;3.30;94971.00;;;;8302927;23;20974;-67
2023/01/16 03:07:06;;;;;;;1.90;1.30;;;;;3.30;94965.00;;;;8234014;28;20324;-68
2023/01/16 03:11:23;;;;;;;1.37;1.20;;;;;3.20;94958.00;;;;8255537;28;20206;-67
2023/01/16 03:15:32;;;;;;;1.27;1.17;;;;;3.00;94945.00;;;;8250562;28;20210;-65
2023/01/16 03:19:44;;;;;;;2.63;1.40;;;;;2.80;94929.00;;;;8249621;28;20210;-65
2023/01/16 03:23:58;;;;;;;1.63;1.10;;;;;2.70;94923.00;;;;8253347;28;20619;-67
2023/01/16 03:28:11;;;;;;;1.30;1.13;;;;;2.50;94910.00;;;;8256013;28;20324;-65
2023/01/16 03:32:23;;;;;;;1.20;1.20;;;;;2.40;94895.00;;;;8252194;28;20225;-65
2023/01/16 03:36:33;;;;;;;1.27;1.10;;;;;2.30;94889.00;;;;8260199;28;20208;-66
2023/01/16 03:40:45;;;;;;;3.87;1.20;;;;;2.30;94886.00;;;;8255534;28;20213;-66
2023/01/16 03:44:58;;;;;;;1.30;1.20;;;;;2.10;94877.00;;;;8246523;28;20773;-66
2023/01/16 03:49:09;;;;;;;1.20;1.10;;;;;2.00;94862.00;;;;8253247;28;20198;-66
2023/01/16 03:53:14;;;;;;;1.20;1.20;;;;;1.90;94856.00;;;;8247342;28;20217;-66
2023/01/16 03:57:27;;;;;;;1.40;1.30;;;;;1.80;94846.00;;;;8251961;28;20205;-66
2023/01/16 04:01:39;;;;;;;2.63;1.33;;;;;1.80;94842.00;;;;8261733;28;20233;-66
2023/01/16 04:05:48;;;;;;;1.63;1.23;;;;;1.80;94840.00;;;;8284255;28;20822;-66
2023/01/16 04:09:55;;;;;;;1.70;1.43;;;;;1.70;94830.00;;;;8283798;28;20640;-66
2023/01/16 04:14:03;;;;;;;1.20;1.20;;;;;1.70;94814.00;;;;8284761;28;20262;-67
2023/01/16 04:18:07;;;;;;;2.97;1.20;;;;;1.70;94800.00;;;;8286753;28;20208;-67
2023/01/16 04:22:20;;;;;;;1.73;1.10;;;;;1.60;94793.00;;;;8280523;28;20202;-68
2023/01/16 04:26:29;;;;;;;3.13;1.17;;;;;1.60;94771.00;;;;8281259;28;20296;-69
2023/01/16 04:30:33;;;;;;;1.83;1.30;;;;;1.60;94761.00;;;;8281890;28;20879;-67
2023/01/16 04:34:39;;;;;;;2.10;1.33;;;;;1.60;94750.00;;;;8285043;28;20206;-67
2023/01/16 04:38:42;;;;;;;1.60;1.20;;;;;1.60;94737.00;;;;8287184;28;20773;-68
2023/01/16 04:42:48;;;;;;;2.73;1.07;;;;;1.60;94737.00;;;;8282859;28;20201;-68
2023/01/16 04:46:53;;;;;;;1.80;1.40;;;;;1.60;94728.00;;;;8281192;28;20224;-69
2023/01/16 04:50:58;;;;;;;1.23;1.23;;;;;1.60;94729.00;;;;8271671;28;20496;-68
2023/01/16 04:55:02;;;;;;;2.87;1.40;;;;;1.50;94721.00;;;;8263259;28;20213;-69
2023/01/16 04:59:07;;;;;;;3.47;1.20;;;;;1.40;94721.00;;;;8271337;28;20270;-69
2023/01/16 05:03:13;;;;;;;1.80;1.70;;;;;1.40;94715.00;;;;8276749;28;20224;-68
2023/01/16 05:07:18;;;;;;;4.57;1.80;;;;;1.30;94703.00;;;;8273755;28;20245;-69
2023/01/16 05:11:25;;;;;;;2.43;2.20;;;;;1.30;94696.00;;;;8256314;28;20711;-71
2023/01/16 05:15:28;;;;;;;3.70;2.13;;;;;1.20;94695.00;;;;8253666;28;20200;-70
2023/01/16 05:19:38;;;;;;;2.30;2.00;;;;;1.20;94689.00;;;;8256598;28;20618;-69
2023/01/16 05:23:41;;;;;;;2.93;1.60;;;;;1.10;94677.00;;;;8263442;28;21237;-70
2023/01/16 05:27:49;;;;;;;4.10;2.00;;;;;1.10;94671.00;;;;8262929;28;20339;-70
2023/01/16 05:31:53;;;;;;;5.07;1.97;;;;;1.00;94662.00;;;;8249937;28;20203;-70
2023/01/16 05:35:57;;;;;;;6.13;2.10;;;;;0.90;94654.00;;;;8258213;28;20206;-69
2023/01/16 05:40:00;;;;;;;5.00;2.63;;;;;0.90;94648.00;;;;8261867;28;20214;-70
2023/01/16 05:44:06;;;;;;;9.47;2.40;;;;;0.80;94644.00;;;;8272973;28;20715;-71
2023/01/16 05:48:09;;;;;;;4.43;1.90;;;;;0.80;94632.00;;;;8255042;28;20882;-71
2023/01/16 05:52:19;;;;;;;4.87;1.70;;;;;0.80;94621.00;;;;8264175;28;20207;-69
2023/01/16 05:56:24;;;;;;;6.90;2.20;;;;;0.80;94609.00;;;;8270241;28;20212;-70
2023/01/16 06:00:28;;;;;;;2.67;2.00;;;;;0.80;94610.00;;;;8256383;28;20239;-69
2023/01/16 06:04:31;;;;;;;2.90;2.23;;;;;0.80;94598.00;;;;8268109;28;20226;-70
2023/01/16 06:08:36;;;;;;;2.97;1.87;;;;;0.80;94604.00;;;;8266913;28;20290;-69
2023/01/16 06:12:39;;;;;;;1.83;1.50;;;;;0.70;94599.00;;;;8262612;28;20203;-69
2023/01/16 06:16:42;;;;;;;1.87;1.77;;;;;0.70;94593.00;;;;8260743;28;20213;-70
2023/01/16 06:20:45;;;;;;;3.20;1.60;;;;;0.70;94577.00;;;;8268398;28;20207;-70
2023/01/16 06:24:54;;;;;;;11.13;1.80;;;;;0.70;94573.00;;;;8267953;28;20207;-70
2023/01/16 06:29:00;;;;;;;2.23;2.00;;;;;0.70;94577.00;;;;8289261;28;20307;-69
2023/01/16 06:33:06;;;;;;;1.70;1.60;;;;;0.70;94563.00;;;;8285311;28;21163;-70
2023/01/16 06:37:10;;;;;;;3.60;2.10;;;;;0.70;94569.00;;;;8285542;28;20254;-70
2023/01/16 06:41:14;;;;;;;2.63;1.97;;;;;0.70;94549.00;;;;8283700;28;20208;-71
2023/01/16 06:45:21;;;;;;;2.20;2.00;;;;;0.70;94547.00;;;;8286514;28;20264;-67
2023/01/16 06:49:29;;;;;;;8.00;2.57;;;;;0.70;94527.00;;;;8286214;28;20207;-68
2023/01/16 06:53:34;;;;;;;6.17;2.07;;;;;0.70;94524.00;;;;8286470;28;20269;-68
2023/01/16 06:57:41;;;;;;;2.27;2.07;;;;;0.70;94524.00;;;;8286543;28;20215;-68
2023/01/16 07:01:44;;;;;;;2.17;2.00;;;;;0.80;94519.00;;;;8281374;28;20272;-68
2023/01/16 07:05:51;;;;;;;4.03;2.53;;;;;0.80;94511.00;;;;8287348;28;20680;-69
2023/01/16 07:09:54;;;;;;;4.13;2.43;;;;;0.80;94505.00;;;;8283642;28;20204;-69
2023/01/16 07:22:38;;;;;;;10.57;3.80;;;;;0.90;94486.00;;;;8282436;28;20642;-68
2023/01/16 07:26:47;;;;;;;4.43;2.77;;;;;1.00;94469.00;;;;8302556;28;20302;-68
2023/01/16 07:30:51;;;;;;;3.97;2.27;;;;;1.00;94462.00;;;;8302454;28;20207;-68
2023/01/16 07:34:54;;;;;;;5.47;2.90;;;;;1.00;94457.00;;;;8302122;28;20199;-68
2023/01/16 07:38:58;;;;;;;3.47;2.67;;;;;1.10;94448.00;;;;8301897;28;20200;-68
2023/01/16 07:43:06;;;;;;;3.77;2.90;;;;;1.10;94445.00;;;;8302248;28;20197;-68
2023/01/16 07:47:12;;;;;;;4.10;2.43;;;;;1.10;94426.00;;;;8301860;28;20222;-68
2023/01/16 07:51:16;;;;;;;11.33;3.30;;;;;1.20;94419.00;;;;8301849;28;20199;-69
2023/01/16 07:55:19;;;;;;;4.37;2.80;;;;;1.20;94408.00;;;;8300222;28;20246;-70
2023/01/16 07:59:31;;;;;;;6.53;2.90;;;;;1.30;94400.00;;;;8301635;28;20196;-69
2023/01/16 08:03:36;;;;;;;3.00;2.60;;;;;1.30;94394.00;;;;8301141;28;20734;-69
2023/01/16 08:07:41;;;;;;;3.77;2.40;;;;;1.40;94387.00;;;;8302159;28;20228;-69
2023/01/16 08:11:50;;;;;;;6.50;3.00;;;;;1.40;94380.00;;;;8300503;28;20206;-69
2023/01/16 08:15:53;;;;;;;4.70;2.90;;;;;1.50;94364.00;;;;8301674;28;20198;-69
2023/01/16 08:19:58;;;;;;;3.40;2.60;;;;;1.60;94355.00;;;;8301344;28;20205;-69
2023/01/16 08:24:01;;;;;;;8.70;2.83;;;;;1.60;94363.00;;;;8301335;28;20192;-69
2023/01/16 08:28:05;;;;;;;4.27;2.90;;;;;1.60;94341.00;;;;8300065;28;20290;-71
2023/01/16 08:32:09;;;;;;;4.27;2.87;;;;;1.70;94334.00;;;;8300590;28;20197;-71
2023/01/16 08:36:16;;;;;;;5.40;3.33;;;;;1.80;94315.00;;;;8300624;28;20230;-71
2023/01/16 08:40:20;;;;;;;2.70;2.50;;;;;1.90;94320.00;;;;8300183;28;20258;-71
2023/01/16 08:53:15;;;;;;;6.10;2.80;;;;;2.20;94304.00;;;;8300492;28;20688;-71
2023/01/16 08:57:18;;;;;;;3.00;2.43;;;;;2.30;94290.00;;;;8299539;28;20199;-71
2023/01/16 09:01:21;;;;;;;3.10;2.73;;;;;2.40;94270.00;;;;8299131;28;20275;-71
2023/01/16 09:05:28;;;;;;;4.10;2.80;;;;;2.50;94281.00;;;;8299051;28;20205;-71
2023/01/16 09:09:34;;;;;;;5.37;2.63;;;;;2.50;94272.00;;;;8300291;28;20606;-71
2023/01/16 09:13:50;;;;;;;2.93;2.67;;;;;2.60;94258.00;;;;8299948;28;20232;-71
2023/01/16 09:17:53;;;;;;;5.23;2.93;;;;;2.70;94259.00;;;;8298971;28;20222;-71
2023/01/16 09:21:56;;;;;;;3.00;2.50;;;;;2.80;94259.00;;;;8282642;28;20212;-72
2023/01/16 09:26:01;;;;;;;2.30;2.20;;;;;2.90;94248.00;;;;8298667;28;20200;-72
2023/01/16 09:30:07;;;;;;;4.90;2.60;;;;;3.00;94238.00;;;;8299044;28;20236;-71
2023/01/16 09:34:11;;;;;;;6.23;2.57;;;;;3.00;94234.00;;;;8281920;28;20693;-72
2023/01/16 09:38:18;;;;;;;2.70;2.23;;;;;3.20;94216.00;;;;8298913;28;20194;-72
2023/01/16 09:47:14;;;;;;;3.63;2.10;;;;;3.40;94178.00;;;;8263712;28;20222;-72
2023/01/16 09:51:21;;;;;;;2.40;2.20;;;;;3.40;94166.00;;;;8300279;28;20205;-72
2023/01/16 10:00:12;;;;;;;5.40;2.17;;;;;3.60;94133.00;;;;8249597;28;20247;-72
2023/01/16 10:04:21;;;;;;;2.50;2.13;;;;;3.70;94134.00;;;;8306530;28;20226;-71
2023/01/16 10:08:31;;;;;;;2.50;2.30;;;;;3.80;94121.00;;;;8304334;28;20312;-72
2023/01/16 10:12:40;;;;;;;2.37;2.17;;;;;3.90;94115.00;;;;8304624;28;20296;-71
2023/01/16 10:16:55;;;;;;;1.87;1.77;;;;;4.00;94106.00;;;;8305551;28;20182;-71
2023/01/16 10:21:22;;;;;;;3.13;1.77;;;;;4.10;94103.00;;;;8304144;28;20205;-71
2023/01/16 10:25:31;;;;;;;2.27;2.00;;;;;4.20;94089.00;;;;8304223;28;20198;-71
2023/01/16 10:29:40;;;;;;;2.07;1.63;;;;;4.40;94076.00;;;;8304433;28;20540;-72
2023/01/16 10:33:56;;;;;;;3.53;2.07;;;;;4.40;94053.00;;;;8304373;28;20212;-72
2023/01/16 10:38:13;;;;;;;2.40;1.90;;;;;4.60;94044.00;;;;8287450;28;20249;-72
2023/01/16 10:51:08;;;;;;;2.10;2.00;;;;;4.90;93993.00;;;;8303451;28;20276;-73
2023/01/16 10:55:11;;;;;;;1.97;1.60;;;;;5.00;93980.00;;;;8303510;28;20190;-73
2023/01/16 10:59:16;;;;;;;3.33;1.87;;;;;5.10;93982.00;;;;8303363;28;20194;-73
2023/01/16 11:03:24;;;;;;;1.50;1.50;;;;;5.20;93973.00;;;;8302771;28;20353;-73
2023/01/16 11:07:31;;;;;;;1.83;1.57;;;;;5.30;93971.00;;;;8302494;28;20222;-73
2023/01/16 11:20:44;;;;;;;1.80;1.70;;;;;5.70;93933.00;;;;8302361;28;20721;-73
2023/01/16 11:24:58;;;;;;;4.37;2.90;;;;;5.80;93911.00;;;;8303632;28;20206;-71
2023/01/16 11:29:02;;;;;;;1.60;1.50;;;;;5.90;93901.00;;;;8301626;28;20221;-71
2023/01/16 11:33:15;;;;;;;1.90;1.80;;;;;6.00;93882.00;;;;8302451;28;20197;-71
2023/01/16 11:37:22;;;;;;;1.63;1.57;;;;;6.10;93863.00;;;;8302145;28;20210;-70
2023/01/16 11:41:32;;;;;;;1.93;1.47;;;;;6.20;93851.00;;;;8301804;28;20208;-71
2023/01/16 11:50:23;;;;;;;1.90;1.80;;;;;6.70;93807.00;;;;8303229;28;20297;-70
2023/01/16 11:54:31;;;;;;;2.03;1.60;;;;;6.80;93810.00;;;;8301663;28;20198;-71
2023/01/16 11:58:45;;;;;;;2.03;1.80;;;;;6.70;93810.00;;;;8302141;28;20204;-71
2023/01/16 12:03:30;;;;;;;1.93;1.73;;;;;6.50;93800.00;;;;8301159;28;20265;-70
2023/01/16 12:07:42;;;;;;;2.77;1.93;;;;;6.30;93790.00;;;;8300933;28;20217;-71
2023/01/16 12:16:40;;;;;;;3.37;2.10;;;;;6.20;93740.00;;;;8299942;28;20201;-71
2023/01/16 12:20:53;;;;;;;2.47;1.90;;;;;6.20;93726.00;;;;8300584;28;20202;-71
2023/01/16 12:25:05;;;;;;;2.47;2.00;;;;;6.30;93711.00;;;;8299764;28;20179;-71
2023/01/16 12:29:20;;;;;;;1.90;1.77;;;;;6.40;93695.00;;;;8299970;28;20226;-71
2023/01/16 12:33:33;;;;;;;2.03;1.83;;;;;6.50;93676.00;;;;8283907;28;20639;-72
2023/01/16 12:37:53;;;;;;;2.07;1.87;;;;;6.50;93653.00;;;;8300314;28;20226;-73
2023/01/16 12:46:35;;;;;;;2.20;1.90;;;;;6.70;93599.00;;;;8300737;28;20194;-73
2023/01/16 12:50:55;;;;;;;2.53;1.80;;;;;6.70;93620.00;;;;8299861;28;20226;-73
2023/01/16 12:55:16;;;;;;;2.10;1.87;;;;;6.70;93636.00;;;;8299233;28;20233;-72
2023/01/16 12:59:22;;;;;;;3.60;2.10;;;;;6.80;93644.00;;;;8298845;28;20253;-72
2023/01/16 13:03:39;;;;;;;4.83;2.00;;;;;6.80;93645.00;;;;8298311;28;20603;-72
2023/01/16 13:07:49;;;;;;;4.13;2.13;;;;;6.90;93641.00;;;;8299720;28;20194;-73
2023/01/16 13:16:30;;;;;;;2.00;1.87;;;;;6.80;93635.00;;;;8299582;28;20194;-72
2023/01/16 13:20:38;;;;;;;5.43;1.77;;;;;6.70;93637.00;;;;8300230;28;20202;-73
2023/01/16 13:25:01;;;;;;;1.87;1.73;;;;;6.80;93648.00;;;;8299459;28;20201;-72
2023/01/16 13:29:11;;;;;;;2.17;1.93;;;;;6.90;93653.00;;;;8299431;28;20317;-73
2023/01/16 13:33:19;;;;;;;2.00;1.80;;;;;7.00;93657.00;;;;8299241;28;20194;-72
2023/01/16 13:37:48;;;;;;;2.23;2.03;;;;;7.00;93652.00;;;;8299372;28;20233;-72
2023/01/16 13:41:59;;;;;;;3.57;2.53;;;;;7.00;93636.00;;;;8299349;28;20201;-72
2023/01/16 13:46:12;;;;;;;3.80;2.70;;;;;7.00;93640.00;;;;8298898;28;20631;-72
2023/01/16 13:50:24;;;;;;;5.63;3.30;;;;;7.00;93628.00;;;;8298746;28;20300;-72
2023/01/16 13:54:36;;;;;;;22.30;9.13;;;;;7.00;93613.00;;;;8299518;28;20194;-72
2023/01/16 13:58:42;;;;;;;5.37;3.60;;;;;7.00;93591.00;;;;8299336;28;20246;-72
2023/01/16 14:03:03;;;;;;;2.13;2.03;;;;;6.90;93558.00;;;;8298799;28;20278;-72
2023/01/16 14:12:21;;;;;;;1.63;1.53;;;;;6.60;93554.00;;;;8298437;28;20190;-72
2023/01/16 14:16:38;;;;;;;1.60;1.50;;;;;6.60;93617.00;;;;8298050;28;20197;-72
2023/01/16 14:20:53;;;;;;;1.57;1.50;;;;;6.60;93614.00;;;;8299312;28;20197;-71
2023/01/16 14:24:59;;;;;;;1.80;1.70;;;;;6.60;93618.00;;;;8297875;28;20199;-71
2023/01/16 14:29:06;;;;;;;1.37;1.37;;;;;6.60;93621.00;;;;8297693;28;20230;-69
2023/01/16 14:33:18;;;;;;;2.70;1.47;;;;;6.60;93621.00;;;;8298085;28;20517;-70
2023/01/16 14:37:26;;;;;;;2.07;1.60;;;;;6.60;93617.00;;;;8297212;28;20190;-69
2023/01/16 14:55:42;;;;;;;4.03;2.20;;;;;6.50;93606.00;;;;8203446;29;20215;-69
2023/01/16 14:59:53;;;;;;;1.73;1.60;;;;;6.40;93607.00;;;;8272530;28;20237;-68
2023/01/16 15:03:57;;;;;;;1.87;1.70;;;;;6.40;93596.00;;;;8303381;28;20301;-68
2023/01/16 15:08:04;;;;;;;2.90;2.10;;;;;6.40;93575.00;;;;8302303;28;20563;-69
2023/01/16 15:12:12;;;;;;;9.03;3.33;;;;;6.30;93566.00;;;;8303215;28;20229;-68
2023/01/16 15:21:56;;;;;;;48.80;16.13;;;;;6.30;93554.00;;;;8302705;28;20205;-68
2023/01/16 15:25:19;;;;;;;4.47;2.60;;;;;6.00;93556.00;;;;8302140;28;20241;-69
2023/01/16 15:29:48;;;;;;;5.40;3.63;;;;;5.90;93579.00;;;;8303396;28;20687;-68
2023/01/16 15:34:00;;;;;;;11.20;5.23;;;;;5.90;93570.00;;;;8300267;28;20545;-69
2023/01/16 15:38:09;;;;;;;13.80;5.83;;;;;5.90;93562.00;;;;8285183;28;20245;-68
2023/01/16 15:46:57;;;;;;;5.33;3.27;;;;;5.70;93520.00;;;;8297573;28;20190;-69
2023/01/16 15:51:04;;;;;;;13.30;9.73;;;;;5.70;93517.00;;;;8301234;28;20213;-69
2023/01/16 15:55:18;;;;;;;198.17;167.27;;;;;5.60;93567.00;;;;8280479;28;20606;-69
2023/01/16 15:59:26;;;;;;;22.03;14.80;;;;;5.70;93544.00;;;;8301504;28;20198;-69
2023/01/16 16:03:42;;;;;;;26.13;17.57;;;;;5.70;93533.00;;;;8301781;28;20229;-69
2023/01/16 16:07:45;;;;;;;21.57;16.33;;;;;5.60;93539.00;;;;8302273;28;20588;-69
2023/01/16 16:11:55;;;;;;;8.57;4.40;;;;;5.60;93539.00;;;;8300821;28;20284;-69
2023/01/16 16:20:40;;;;;;;19.90;14.60;;;;;5.30;93559.00;;;;8301785;28;20202;-70
2023/01/16 16:24:46;;;;;;;4.80;3.60;;;;;5.20;93556.00;;;;8299624;28;20199;-70
2023/01/16 16:28:50;;;;;;;7.40;4.60;;;;;5.10;93561.00;;;;8300384;28;20538;-71
2023/01/16 16:32:56;;;;;;;6.57;3.80;;;;;5.30;93553.00;;;;8299701;28;20627;-70
2023/01/16 16:37:02;;;;;;;8.00;3.80;;;;;5.10;93540.00;;;;8301237;28;20194;-70
2023/01/16 16:46:31;;;;;;;4.83;3.30;;;;;4.70;93536.00;;;;8300531;28;20233;-70
2023/01/16 16:50:40;;;;;;;4.80;3.30;;;;;4.60;93527.00;;;;8298221;28;20218;-70
2023/01/16 16:54:52;;;;;;;7.67;4.40;;;;;4.60;93519.00;;;;8300145;28;20202;-70
2023/01/16 16:58:57;;;;;;;9.63;5.00;;;;;4.60;93506.00;;;;8299490;28;20194;-70
2023/01/16 17:03:16;;;;;;;9.20;4.00;;;;;4.50;93474.00;;;;8299708;28;20714;-70
2023/01/16 17:07:24;;;;;;;72.10;64.47;;;;;4.50;93458.00;;;;8300217;28;20198;-70
2023/01/16 17:11:35;;;;;;;4.90;3.80;;;;;4.60;93448.00;;;;8299983;28;20647;-70
2023/01/16 17:15:46;;;;;;;6.93;3.47;;;;;4.60;93435.00;;;;8282692;28;20193;-70
2023/01/16 17:19:50;;;;;;;8.70;4.93;;;;;4.50;93430.00;;;;8299478;28;20206;-70
2023/01/16 17:23:54;;;;;;;11.30;6.53;;;;;4.50;93417.00;;;;8298390;28;20198;-70
2023/01/16 17:27:58;;;;;;;8.50;3.70;;;;;4.50;93404.00;;;;8299331;28;20248;-69
2023/01/16 17:32:11;;;;;;;4.03;3.20;;;;;4.50;93396.00;;;;8296443;28;20221;-69
2023/01/16 17:36:23;;;;;;;6.47;3.93;;;;;4.60;93411.00;;;;8299724;28;20205;-69
2023/01/16 17:40:28;;;;;;;5.47;3.20;;;;;4.60;93413.00;;;;8298744;28;20249;-70
2023/01/16 17:48:54;;;;;;;6.10;3.57;;;;;4.60;93426.00;;;;8298532;28;20557;-69
2023/01/16 17:53:05;;;;;;;5.33;3.73;;;;;4.60;93421.00;;;;8298932;28;20225;-70
2023/01/16 17:57:12;;;;;;;11.17;7.60;;;;;4.60;93428.00;;;;8281315;28;20197;-69
2023/01/16 18:01:19;;;;;;;10.90;6.20;;;;;4.60;93400.00;;;;8298636;28;20232;-69
2023/01/16 18:05:26;;;;;;;8.97;4.87;;;;;4.60;93417.00;;;;8299383;28;20592;-69
2023/01/16 18:09:30;;;;;;;7.00;5.83;;;;;4.60;93410.00;;;;8298632;28;20229;-70
2023/01/16 18:17:57;;;;;;;5.43;3.20;;;;;4.60;93398.00;;;;8305488;28;20223;-70
2023/01/16 18:22:03;;;;;;;7.93;3.27;;;;;4.70;93398.00;;;;8305041;28;20198;-70
2023/01/16 18:26:09;;;;;;;5.20;2.53;;;;;4.70;93408.00;;;;8305056;28;20244;-69
2023/01/16 18:30:14;;;;;;;3.10;2.67;;;;;4.70;93404.00;;;;8288022;28;20218;-70
2023/01/16 18:34:19;;;;;;;4.33;2.83;;;;;4.70;93394.00;;;;8304685;28;20535;-70
2023/01/16 19:04:37;;;;;;;6.60;2.87;;;;;4.40;93371.00;;;;8302856;28;20264;-70
2023/01/16 19:08:41;;;;;;;5.83;3.50;;;;;4.40;93375.00;;;;8301468;28;20289;-69
2023/01/16 19:12:45;;;;;;;5.90;2.90;;;;;4.30;93362.00;;;;8303861;28;20231;-70
2023/01/16 19:16:53;;;;;;;3.87;2.80;;;;;4.20;93355.00;;;;8303088;28;20202;-70
2023/01/16 19:21:01;;;;;;;6.73;2.40;;;;;4.20;93347.00;;;;8302834;28;20205;-72
2023/01/16 19:25:09;;;;;;;3.27;2.20;;;;;4.30;93351.00;;;;8301090;28;20259;-72
2023/01/16 19:29:13;;;;;;;5.37;2.77;;;;;4.50;93349.00;;;;8302763;28;20197;-72
2023/01/16 19:33:20;;;;;;;9.53;4.33;;;;;4.50;93346.00;;;;8299358;28;20277;-72
2023/01/16 19:37:28;;;;;;;5.10;2.87;;;;;4.70;93329.00;;;;8302315;28;20215;-72
2023/01/16 19:50:23;;;;;;;3.77;1.93;;;;;5.40;93352.00;;;;8302242;28;20663;-71
2023/01/16 19:54:29;;;;;;;2.87;1.80;;;;;5.50;93336.00;;;;8302907;28;20230;-71
2023/01/16 19:58:32;;;;;;;3.60;2.40;;;;;5.50;93352.00;;;;8302085;28;20241;-71
2023/01/16 20:02:41;;;;;;;2.57;2.30;;;;;5.50;93346.00;;;;8302159;28;20587;-71
2023/01/16 20:06:49;;;;;;;1.90;1.80;;;;;5.50;93352.00;;;;8302885;28;20639;-71
2023/01/16 20:10:53;;;;;;;2.17;1.97;;;;;5.50;93347.00;;;;8301756;28;20214;-71
2023/01/16 20:14:59;;;;;;;1.57;1.47;;;;;5.50;93347.00;;;;8301486;28;20198;-71
2023/01/16 20:19:04;;;;;;;1.33;1.33;;;;;5.60;93341.00;;;;8301349;28;20229;-71
2023/01/16 20:23:08;;;;;;;2.67;1.20;;;;;5.60;93348.00;;;;8301600;28;20198;-71
2023/01/16 20:27:12;;;;;;;1.40;1.30;;;;;5.70;93341.00;;;;8300532;28;20245;-71
2023/01/16 20:31:19;;;;;;;1.10;1.10;;;;;5.70;93364.00;;;;8300939;28;20512;-71
2023/01/16 20:35:24;;;;;;;1.00;1.00;;;;;5.70;93347.00;;;;8300184;28;20226;-71
2023/01/16 20:39:27;;;;;;;1.27;1.27;;;;;5.80;93342.00;;;;8300286;28;20201;-71
2023/01/16 20:47:55;;;;;;;1.20;1.20;;;;;5.70;93348.00;;;;8301058;28;20591;-72
2023/01/16 20:51:58;;;;;;;1.10;1.10;;;;;5.70;93353.00;;;;8280670;28;20230;-71
2023/01/16 20:56:04;;;;;;;1.40;1.30;;;;;5.70;93343.00;;;;8300111;28;20635;-71
2023/01/16 21:00:10;;;;;;;1.50;1.40;;;;;5.60;93339.00;;;;8296383;28;20292;-71
2023/01/16 21:04:15;;;;;;;1.00;1.00;;;;;5.60;93339.00;;;;8298805;28;20663;-70
2023/01/16 21:08:19;;;;;;;1.10;1.10;;;;;5.60;93347.00;;;;8299136;28;20252;-71
2023/01/16 21:25:33;;;;;;;1.50;1.00;;;;;5.50;93328.00;;;;8299293;28;20336;-69
2023/01/16 21:29:37;;;;;;;1.00;1.00;;;;;5.60;93351.00;;;;8299476;28;20281;-69
2023/01/16 21:33:41;;;;;;;2.60;1.10;;;;;5.60;93347.00;;;;8299081;28;20280;-69
2023/01/16 21:37:51;;;;;;;2.00;1.20;;;;;5.60;93351.00;;;;8298430;28;20350;-70
2023/01/16 21:46:30;;;;;;;1.10;1.10;;;;;5.60;93353.00;;;;8298618;28;20201;-69
2023/01/16 21:50:42;;;;;;;1.20;1.20;;;;;5.70;93329.00;;;;8298906;28;20198;-69
2023/01/16 21:54:45;;;;;;;2.33;1.23;;;;;5.70;93331.00;;;;8299518;28;20347;-69
2023/01/16 21:58:48;;;;;;;1.07;1.07;;;;;5.70;93330.00;;;;8299179;28;20198;-69
2023/01/16 22:02:52;;;;;;;2.40;1.27;;;;;5.70;93334.00;;;;8298619;28;20730;-69
2023/01/16 22:06:57;;;;;;;1.47;1.20;;;;;5.60;93335.00;;;;8298513;28;20201;-69
2023/01/16 22:19:58;;;;;;;1.10;1.10;;;;;5.40;93349.00;;;;8298625;28;20611;-70
2023/01/16 22:24:05;;;;;;;1.00;1.00;;;;;5.30;93334.00;;;;8298542;28;20644;-70
2023/01/16 22:28:15;;;;;;;1.80;1.10;;;;;5.30;93329.00;;;;8282247;28;20203;-69
2023/01/16 22:32:18;;;;;;;2.73;1.40;;;;;5.30;93330.00;;;;8298030;28;20264;-69
2023/01/16 22:36:24;;;;;;;1.47;1.10;;;;;5.30;93328.00;;;;8298397;28;20202;-70
2023/01/16 22:40:28;;;;;;;1.40;1.30;;;;;5.20;93332.00;;;;8298235;28;20517;-70
2023/01/16 22:48:55;;;;;;;1.67;1.50;;;;;5.10;93344.00;;;;8298814;28;20194;-70
2023/01/16 22:52:59;;;;;;;1.20;1.20;;;;;5.10;93344.00;;;;8281062;28;20222;-69
2023/01/16 22:57:05;;;;;;;1.37;1.33;;;;;5.00;93338.00;;;;8297859;28;20198;-69
2023/01/16 23:01:16;;;;;;;1.77;1.20;;;;;5.00;93344.00;;;;8301752;28;20224;-70
2023/01/16 23:05:21;;;;;;;1.23;1.23;;;;;5.00;93339.00;;;;8304261;28;20194;-69
2023/01/16 23:09:25;;;;;;;1.30;1.20;;;;;5.00;93343.00;;;;8303410;28;20198;-69
2023/01/16 23:13:30;;;;;;;1.63;1.50;;;;;4.90;93339.00;;;;8286047;28;20277;-69
2023/01/16 23:17:34;;;;;;;1.80;1.10;;;;;4.90;93350.00;;;;8285351;28;20261;-69
2023/01/16 23:21:38;;;;;;;2.33;1.40;;;;;4.90;93357.00;;;;8302617;28;20249;-69
2023/01/16 23:25:43;;;;;;;5.50;1.33;;;;;4.90;93360.00;;;;8303009;28;20189;-69
2023/01/16 23:29:49;;;;;;;1.37;1.13;;;;;4.90;93364.00;;;;8302730;28;20237;-70
2023/01/16 23:33:53;;;;;;;1.43;1.33;;;;;4.90;93364.00;;;;8302089;28;20272;-69
2023/01/16 23:37:56;;;;;;;1.30;1.20;;;;;4.80;93366.00;;;;8303147;28;20245;-69
2023/01/16 23:46:31;;;;;;;1.03;1.03;;;;;4.80;93377.00;;;;8302641;28;20587;-69
2023/01/16 23:50:38;;;;;;;1.30;1.30;;;;;4.70;93378.00;;;;8301972;28;20194;-69
2023/01/16 23:54:45;;;;;;;4.20;1.10;;;;;4.70;93383.00;;;;8302186;28;20304;-69
2023/01/16 23:58:58;;;;;;;2.00;1.30;;;;;4.70;93394.00;;;;8284879;28;20198;-69
